Time;durP1;ratioP1;P1;durP2;ratioP2;P2;SDS_P1;SDS_P2;PMS_P1;PMS_P2;Temp;Humidity;BMP_temperature;BMP_pressure;BME280_temperature;BME280_humidity;BME280_pressure;Samples;Min_cycle;Max_cycle;Signal;HPM_P1;HPM_P2
2022/02/26 00:01:15;;;;;;;22.30;13.32;;;;;;;2.69;63.49;100775.32;1837377;77;22423;-54
2022/02/26 00:03:41;;;;;;;22.35;13.62;;;;;;;2.73;63.38;100779.47;1808158;79;20984;-55
2022/02/26 00:06:09;;;;;;;21.00;13.03;;;;;;;2.73;63.19;100776.04;1819077;77;21085;-54
2022/02/26 00:08:37;;;;;;;24.05;15.05;;;;;;;2.70;63.42;100779.59;1824075;76;21346;-54
2022/02/26 00:11:04;;;;;;;28.27;14.20;;;;;;;2.70;63.78;100774.86;1824020;77;21158;-54
2022/02/26 00:13:31;;;;;;;25.10;13.88;;;;;;;2.75;63.96;100779.41;1833673;76;21018;-54
2022/02/26 00:15:58;;;;;;;28.25;15.43;;;;;;;2.85;63.95;100778.12;1826806;76;20980;-54
2022/02/26 00:18:24;;;;;;;25.32;13.43;;;;;;;3.02;63.94;100781.31;1820252;77;21118;-54
2022/02/26 00:20:50;;;;;;;23.57;16.60;;;;;;;3.16;63.86;100784.19;1825343;76;20990;-54
2022/02/26 00:23:17;;;;;;;23.75;15.38;;;;;;;3.27;63.77;100790.67;1817323;77;21136;-54
2022/02/26 00:25:43;;;;;;;22.20;16.10;;;;;;;3.37;63.55;100791.97;1788515;77;20975;-54
2022/02/26 00:28:09;;;;;;;29.10;16.57;;;;;;;3.42;63.41;100786.57;1797966;77;21085;-54
2022/02/26 00:30:36;;;;;;;24.82;16.27;;;;;;;3.47;63.33;100789.81;1836602;76;21026;-54
2022/02/26 00:33:02;;;;;;;26.50;16.62;;;;;;;3.47;63.37;100799.75;1821045;77;21132;-54
2022/02/26 00:35:29;;;;;;;26.97;16.60;;;;;;;3.49;63.50;100802.29;1810533;77;21181;-55
2022/02/26 00:37:55;;;;;;;25.48;14.03;;;;;;;3.49;63.60;100801.83;1824646;77;21100;-54
2022/02/26 00:40:22;;;;;;;26.27;15.08;;;;;;;3.56;63.62;100804.17;1836226;77;21048;-54
2022/02/26 00:42:49;;;;;;;23.90;15.60;;;;;;;3.69;63.49;100801.41;1813438;77;20968;-54
2022/02/26 00:45:15;;;;;;;29.95;16.85;;;;;;;3.78;63.37;100806.66;1811001;77;21087;-54
2022/02/26 00:47:42;;;;;;;32.83;15.25;;;;;;;3.85;63.28;100808.06;1811718;77;21493;-54
2022/02/26 00:50:09;;;;;;;28.95;16.00;;;;;;;3.89;63.14;100808.33;1802703;77;21066;-54
2022/02/26 00:52:37;;;;;;;25.43;16.70;;;;;;;3.95;63.06;100818.47;1831557;77;21056;-54
2022/02/26 00:55:05;;;;;;;26.82;15.43;;;;;;;3.96;62.99;100818.01;1816963;76;21622;-54
2022/02/26 00:57:34;;;;;;;25.60;16.17;;;;;;;3.97;63.01;100825.75;1842617;77;21080;-54
2022/02/26 01:00:01;;;;;;;21.10;14.78;;;;;;;3.97;63.19;100822.28;1845262;77;21118;-54
2022/02/26 01:02:27;;;;;;;26.05;14.23;;;;;;;4.00;63.46;100832.56;1840179;77;21103;-54
2022/02/26 01:04:54;;;;;;;20.92;13.30;;;;;;;4.05;64.07;100832.76;1825867;77;21488;-53
2022/02/26 01:07:21;;;;;;;25.85;13.88;;;;;;;4.12;64.11;100830.72;1839669;77;21041;-54
2022/02/26 01:09:47;;;;;;;21.97;12.25;;;;;;;4.12;64.52;100843.74;1851184;77;21049;-55
2022/02/26 01:12:14;;;;;;;20.20;10.80;;;;;;;4.13;64.72;100838.06;1837993;77;21120;-53
2022/02/26 01:14:40;;;;;;;18.98;11.35;;;;;;;4.14;64.87;100838.00;1820395;77;21068;-54
2022/02/26 01:17:08;;;;;;;16.25;9.60;;;;;;;4.19;64.99;100833.42;1805656;77;20999;-54
2022/02/26 01:19:35;;;;;;;17.75;9.40;;;;;;;4.28;64.83;100839.95;1817452;77;21046;-54
2022/02/26 01:22:03;;;;;;;19.85;10.15;;;;;;;4.31;64.80;100841.59;1827888;77;21015;-54
2022/02/26 01:24:29;;;;;;;16.12;9.00;;;;;;;4.33;64.83;100837.98;1817924;78;21040;-53
2022/02/26 01:26:56;;;;;;;13.28;7.58;;;;;;;4.37;64.72;100848.66;1829989;77;21678;-53
2022/02/26 01:29:23;;;;;;;14.40;8.30;;;;;;;4.46;64.42;100844.78;1849233;77;21085;-53
2022/02/26 01:31:49;;;;;;;14.23;8.38;;;;;;;4.54;64.17;100847.00;1837338;77;21765;-53
2022/02/26 01:34:16;;;;;;;12.70;8.20;;;;;;;4.54;64.06;100844.39;1812528;77;21069;-54
2022/02/26 01:36:42;;;;;;;15.43;8.95;;;;;;;4.51;64.04;100846.70;1833565;76;21490;-53
2022/02/26 01:39:10;;;;;;;12.00;7.08;;;;;;;4.51;64.09;100853.22;1839351;77;21030;-53
2022/02/26 01:41:37;;;;;;;13.13;7.35;;;;;;;4.53;63.94;100853.15;1831836;76;21038;-54
2022/02/26 01:44:04;;;;;;;11.48;6.65;;;;;;;4.56;63.79;100852.54;1841340;77;20971;-53
2022/02/26 01:46:31;;;;;;;14.68;7.37;;;;;;;4.54;63.81;100854.82;1801118;77;21089;-56
2022/02/26 01:48:58;;;;;;;10.40;6.12;;;;;;;4.55;63.82;100857.83;1840669;76;21109;-53
2022/02/26 01:51:24;;;;;;;9.95;5.47;;;;;;;4.53;63.73;100855.29;1817513;77;21423;-53
2022/02/26 01:53:50;;;;;;;10.08;5.53;;;;;;;4.58;63.59;100861.13;1840351;76;21077;-54
2022/02/26 01:56:17;;;;;;;12.65;5.65;;;;;;;4.55;63.35;100850.84;1810913;77;20998;-53
2022/02/26 01:58:43;;;;;;;8.70;4.97;;;;;;;4.51;63.43;100863.64;1820721;77;21065;-53
2022/02/26 02:01:11;;;;;;;9.18;3.83;;;;;;;4.43;63.43;100864.45;1818940;76;21085;-53
2022/02/26 02:03:38;;;;;;;6.97;3.22;;;;;;;4.43;63.47;100875.72;1813738;76;21529;-54
2022/02/26 02:06:05;;;;;;;7.40;3.52;;;;;;;4.48;63.32;100875.98;1815242;77;21050;-54
2022/02/26 02:08:31;;;;;;;6.40;3.45;;;;;;;4.45;63.29;100870.44;1822928;76;21742;-54
2022/02/26 02:10:59;;;;;;;6.45;2.50;;;;;;;4.43;63.38;100885.30;1816116;77;21070;-53
2022/02/26 02:13:27;;;;;;;6.20;3.10;;;;;;;4.42;63.43;100886.20;1842764;77;21043;-54
2022/02/26 02:15:54;;;;;;;5.67;2.85;;;;;;;4.44;63.37;100892.22;1836358;76;21651;-53
2022/02/26 02:18:20;;;;;;;7.40;3.02;;;;;;;4.46;63.26;100891.22;1844796;77;21073;-53
2022/02/26 02:20:47;;;;;;;6.10;2.83;;;;;;;4.45;63.13;100897.36;1826800;76;21505;-54
2022/02/26 02:23:13;;;;;;;6.45;3.02;;;;;;;4.43;63.12;100897.87;1830208;77;21069;-54
2022/02/26 02:25:39;;;;;;;6.78;2.85;;;;;;;4.40;63.24;100913.63;1839945;76;21746;-53
2022/02/26 02:28:07;;;;;;;5.28;2.70;;;;;;;4.43;63.17;100906.98;1813993;76;21097;-53
2022/02/26 02:30:34;;;;;;;6.25;2.47;;;;;;;4.46;63.08;100909.45;1827519;76;21090;-53
2022/02/26 02:33:01;;;;;;;7.00;2.85;;;;;;;4.40;63.14;100911.03;1831131;76;21043;-54
2022/02/26 02:35:32;;;;;;;5.80;2.75;;;;;;;4.41;63.23;100911.90;1830457;77;21041;-53
2022/02/26 02:38:05;;;;;;;5.92;2.08;;;;;;;4.36;63.29;100911.27;1824839;77;21081;-53
2022/02/26 02:40:32;;;;;;;5.60;2.60;;;;;;;4.38;63.25;100918.55;1829009;77;21052;-53
2022/02/26 02:42:58;;;;;;;6.97;2.60;;;;;;;4.37;63.30;100912.94;1833109;77;21102;-54
2022/02/26 02:45:26;;;;;;;8.05;2.70;;;;;;;4.34;63.45;100919.59;1833904;77;21046;-53
2022/02/26 02:47:52;;;;;;;6.15;2.45;;;;;;;4.32;63.53;100921.42;1789222;77;21069;-53
2022/02/26 02:50:19;;;;;;;5.33;2.35;;;;;;;4.27;63.63;100918.58;1833119;76;23246;-54
2022/02/26 02:52:47;;;;;;;5.62;2.95;;;;;;;4.34;63.52;100927.40;1800347;77;21781;-53
2022/02/26 02:55:14;;;;;;;7.33;2.60;;;;;;;4.36;63.37;100927.73;1842117;77;21003;-54
2022/02/26 02:57:45;;;;;;;7.97;2.87;;;;;;;4.30;63.64;100937.12;1837084;77;21023;-53
2022/02/26 03:00:14;;;;;;;5.35;1.92;;;;;;;4.25;63.75;100938.65;1793954;78;21026;-53
2022/02/26 03:02:41;;;;;;;5.55;1.98;;;;;;;4.28;63.72;100941.09;1821426;76;21092;-54
2022/02/26 03:05:08;;;;;;;5.85;2.47;;;;;;;4.35;63.54;100943.43;1810658;77;21038;-54
2022/02/26 03:07:35;;;;;;;6.55;2.67;;;;;;;4.32;63.58;100945.73;1803207;77;21284;-53
2022/02/26 03:10:03;;;;;;;6.05;3.05;;;;;;;4.32;63.61;100945.73;1803738;77;21513;-53
2022/02/26 03:12:31;;;;;;;5.20;2.60;;;;;;;4.27;63.69;100953.75;1812481;77;21022;-54
2022/02/26 03:14:57;;;;;;;5.78;2.33;;;;;;;4.26;63.80;100954.66;1831227;77;21207;-53
2022/02/26 03:17:24;;;;;;;8.80;2.92;;;;;;;4.33;63.62;100952.63;1831654;76;21719;-54
2022/02/26 03:19:50;;;;;;;5.65;2.50;;;;;;;4.30;63.65;100955.36;1823266;77;21033;-54
2022/02/26 03:22:17;;;;;;;6.00;2.90;;;;;;;4.30;63.73;100955.83;1804202;77;20987;-54
2022/02/26 03:24:45;;;;;;;6.40;2.95;;;;;;;4.26;63.82;100965.08;1834152;77;21634;-55
2022/02/26 03:27:11;;;;;;;9.83;3.02;;;;;;;4.25;63.81;100959.93;1822192;76;21080;-54
2022/02/26 03:29:37;;;;;;;5.10;2.55;;;;;;;4.29;63.88;100958.89;1829044;77;21749;-54
2022/02/26 03:32:06;;;;;;;7.03;3.47;;;;;;;4.33;63.81;100963.51;1827800;76;21025;-54
2022/02/26 03:34:32;;;;;;;6.33;2.75;;;;;;;4.33;63.85;100970.86;1830941;77;21033;-54
2022/02/26 03:36:59;;;;;;;7.03;2.83;;;;;;;4.27;63.90;100964.17;1832709;77;21410;-54
2022/02/26 03:39:31;;;;;;;6.03;2.75;;;;;;;4.25;64.03;100972.95;1805421;77;21166;-54
2022/02/26 03:41:54;;;;;;;6.03;2.90;;;;;;;4.21;64.16;100974.02;1830406;77;21105;-54
2022/02/26 03:44:20;;;;;;;6.45;3.60;;;;;;;4.23;64.18;100974.32;1825100;77;21087;-54
2022/02/26 03:46:46;;;;;;;6.70;3.30;;;;;;;4.19;64.28;100977.16;1801455;77;21541;-54
2022/02/26 03:49:13;;;;;;;5.30;2.50;;;;;;;4.13;64.55;100982.15;1825091;76;21607;-55
2022/02/26 03:51:40;;;;;;;5.87;2.75;;;;;;;4.05;64.78;100981.20;1799231;77;21096;-55
2022/02/26 03:54:06;;;;;;;6.40;3.37;;;;;;;4.02;64.78;100984.40;1797708;77;21111;-54
2022/02/26 03:56:33;;;;;;;7.67;3.95;;;;;;;4.02;64.99;100988.30;1828894;77;21058;-54
2022/02/26 03:59:00;;;;;;;7.87;3.33;;;;;;;3.99;65.12;100992.34;1801691;77;21398;-55
2022/02/26 04:01:26;;;;;;;7.87;3.42;;;;;;;3.93;65.34;101000.40;1836740;77;21046;-54
2022/02/26 04:03:52;;;;;;;6.62;3.30;;;;;;;3.89;65.38;101003.59;1838249;77;21042;-54
2022/02/26 04:06:19;;;;;;;7.15;3.33;;;;;;;3.83;65.70;101006.01;1838325;76;21059;-54
2022/02/26 04:08:45;;;;;;;9.83;4.20;;;;;;;3.85;65.68;101018.50;1829752;77;21082;-54
2022/02/26 04:11:12;;;;;;;7.42;3.60;;;;;;;3.84;65.67;101025.07;1836964;77;21062;-54
2022/02/26 04:13:38;;;;;;;8.23;4.15;;;;;;;3.75;66.10;101019.80;1801987;77;21540;-54
2022/02/26 04:16:05;;;;;;;7.70;3.67;;;;;;;3.71;66.30;101026.02;1827229;77;21164;-54
2022/02/26 04:18:31;;;;;;;6.97;3.55;;;;;;;3.67;66.51;101024.47;1827896;76;21028;-54
2022/02/26 04:20:58;;;;;;;6.58;3.15;;;;;;;3.69;66.45;101030.45;1824651;76;21064;-55
2022/02/26 04:23:24;;;;;;;9.15;4.17;;;;;;;3.67;66.57;101043.98;1805680;77;21120;-54
2022/02/26 04:25:51;;;;;;;7.50;3.85;;;;;;;3.64;66.72;101049.31;1824716;77;21057;-54
2022/02/26 04:28:17;;;;;;;9.23;4.42;;;;;;;3.52;67.17;101044.98;1825111;77;23335;-54
2022/02/26 04:30:44;;;;;;;8.88;3.98;;;;;;;3.61;66.94;101052.03;1828194;77;21017;-54
2022/02/26 04:33:11;;;;;;;8.15;4.17;;;;;;;3.63;66.81;101058.02;1826116;76;21018;-54
2022/02/26 04:35:37;;;;;;;13.58;4.30;;;;;;;3.59;66.93;101059.90;1827252;77;20992;-54
2022/02/26 04:38:04;;;;;;;8.58;3.90;;;;;;;3.57;66.87;101060.42;1802138;77;21489;-54
2022/02/26 04:40:30;;;;;;;8.75;3.40;;;;;;;3.54;67.03;101077.45;1802811;77;21566;-54
2022/02/26 04:42:57;;;;;;;10.25;4.60;;;;;;;3.54;67.09;101076.98;1828817;77;21072;-54
2022/02/26 04:45:27;;;;;;;7.85;3.72;;;;;;;3.58;66.95;101085.55;1838610;76;21069;-57
2022/02/26 04:47:51;;;;;;;7.87;4.37;;;;;;;3.57;67.00;101086.91;1825245;77;21046;-54
2022/02/26 04:50:18;;;;;;;7.70;3.72;;;;;;;3.55;66.98;101097.38;1827945;77;21010;-54
2022/02/26 04:52:45;;;;;;;10.35;4.97;;;;;;;3.50;66.96;101101.45;1824975;77;23302;-54
2022/02/26 04:55:12;;;;;;;9.10;3.85;;;;;;;3.50;67.18;101103.22;1833708;77;21103;-55
2022/02/26 04:57:39;;;;;;;8.13;4.50;;;;;;;3.51;67.19;101107.06;1828607;76;21093;-55
2022/02/26 05:00:09;;;;;;;17.05;4.75;;;;;;;3.49;67.24;101103.65;1835666;77;21066;-54
2022/02/26 05:02:37;;;;;;;8.55;4.17;;;;;;;3.47;67.24;101115.88;1835163;77;21457;-54
2022/02/26 05:05:04;;;;;;;8.38;4.08;;;;;;;3.42;67.45;101127.38;1825890;77;21085;-54
2022/02/26 05:07:32;;;;;;;9.75;5.00;;;;;;;3.40;67.54;101127.90;1819779;77;21374;-54
2022/02/26 05:09:59;;;;;;;8.08;3.77;;;;;;;3.42;67.66;101137.78;1838267;77;21029;-55
2022/02/26 05:12:25;;;;;;;8.90;5.15;;;;;;;3.37;67.88;101139.72;1794702;77;21084;-55
2022/02/26 05:14:54;;;;;;;8.60;3.75;;;;;;;3.29;68.17;101136.09;1831897;77;21530;-54
2022/02/26 05:17:20;;;;;;;10.00;4.37;;;;;;;3.24;68.38;101143.22;1827023;76;22902;-54
2022/02/26 05:19:47;;;;;;;8.05;3.98;;;;;;;3.23;68.50;101139.78;1795977;76;21062;-55
2022/02/26 05:22:13;;;;;;;8.53;4.28;;;;;;;3.22;68.57;101146.34;1828905;76;21069;-53
2022/02/26 05:24:40;;;;;;;9.43;4.92;;;;;;;3.19;68.66;101147.28;1778212;77;21171;-55
2022/02/26 05:27:08;;;;;;;13.20;4.97;;;;;;;3.14;68.86;101155.70;1829566;76;21051;-53
2022/02/26 05:29:34;;;;;;;10.65;5.53;;;;;;;3.13;69.00;101156.17;1824787;77;21175;-54
2022/02/26 05:32:01;;;;;;;9.50;4.80;;;;;;;3.13;69.01;101158.77;1832381;77;21072;-53
2022/02/26 05:34:27;;;;;;;7.80;4.40;;;;;;;3.12;68.92;101164.86;1823970;77;20999;-54
2022/02/26 05:36:53;;;;;;;11.35;4.90;;;;;;;3.08;69.09;101163.30;1820477;76;21645;-53
2022/02/26 05:39:20;;;;;;;8.45;4.92;;;;;;;3.10;69.09;101169.28;1806612;77;21109;-54
2022/02/26 05:41:46;;;;;;;9.55;5.30;;;;;;;3.11;69.05;101161.89;1826856;77;21070;-55
2022/02/26 05:44:13;;;;;;;12.33;5.97;;;;;;;3.12;68.92;101165.33;1807065;77;21002;-54
2022/02/26 05:46:39;;;;;;;11.43;5.47;;;;;;;3.08;69.13;101172.39;1826515;76;21081;-54
2022/02/26 05:49:05;;;;;;;11.65;5.67;;;;;;;3.09;69.04;101167.60;1799290;77;21066;-55
2022/02/26 05:51:32;;;;;;;12.60;5.95;;;;;;;3.14;68.98;101179.11;1828306;77;21497;-55
2022/02/26 05:53:58;;;;;;;10.50;5.87;;;;;;;3.15;68.96;101184.72;1824481;77;21076;-54
2022/02/26 05:56:25;;;;;;;9.95;5.72;;;;;;;3.15;68.94;101166.52;1826993;76;21084;-54
2022/02/26 05:58:51;;;;;;;10.10;5.65;;;;;;;3.14;68.94;101181.28;1829054;77;21187;-55
2022/02/26 06:01:18;;;;;;;10.65;5.87;;;;;;;3.20;68.85;101188.47;1832269;77;21065;-55
2022/02/26 06:03:44;;;;;;;10.80;5.15;;;;;;;3.27;68.67;101189.93;1827805;76;21148;-54
2022/02/26 06:06:11;;;;;;;8.68;5.50;;;;;;;3.29;68.61;101194.61;1828111;77;21135;-55
2022/02/26 06:08:37;;;;;;;10.60;5.40;;;;;;;3.30;68.62;101198.92;1807295;77;21042;-54
2022/02/26 06:11:04;;;;;;;9.63;4.37;;;;;;;3.28;68.68;101199.44;1836655;77;21078;-55
2022/02/26 06:13:30;;;;;;;9.58;5.90;;;;;;;3.33;68.56;101200.13;1771222;78;21042;-55
2022/02/26 06:15:57;;;;;;;10.90;5.62;;;;;;;3.36;68.54;101199.98;1836135;77;21007;-55
2022/02/26 06:18:25;;;;;;;10.72;5.25;;;;;;;3.40;68.48;101213.75;1826339;76;21090;-54
2022/02/26 06:20:51;;;;;;;9.88;5.55;;;;;;;3.41;68.43;101208.47;1829453;77;21033;-54
2022/02/26 06:23:18;;;;;;;9.60;5.50;;;;;;;3.37;68.44;101217.30;1829258;76;21034;-55
2022/02/26 06:25:46;;;;;;;11.43;5.78;;;;;;;3.40;68.41;101209.39;1828639;77;21063;-55
2022/02/26 06:28:12;;;;;;;8.90;5.72;;;;;;;3.48;68.27;101218.19;1824079;76;21092;-54
2022/02/26 06:30:40;;;;;;;9.55;5.72;;;;;;;3.47;68.20;101222.56;1830325;76;21835;-53
2022/02/26 06:33:06;;;;;;;9.28;4.80;;;;;;;3.49;68.13;101223.34;1794185;77;20985;-52
2022/02/26 06:35:32;;;;;;;8.95;5.30;;;;;;;3.52;68.00;101234.94;1834059;76;21062;-52
2022/02/26 06:37:59;;;;;;;9.98;4.92;;;;;;;3.56;67.88;101236.14;1832535;76;21040;-51
2022/02/26 06:40:25;;;;;;;11.70;5.55;;;;;;;3.60;67.72;101237.27;1798563;77;21059;-52
2022/02/26 06:42:52;;;;;;;9.90;6.20;;;;;;;3.58;67.68;101240.39;1833069;77;21047;-53
2022/02/26 06:45:18;;;;;;;10.20;5.67;;;;;;;3.52;67.89;101240.15;1837141;77;20959;-52
2022/02/26 06:47:44;;;;;;;12.82;6.28;;;;;;;3.57;67.87;101253.00;1827893;76;21066;-54
2022/02/26 06:50:12;;;;;;;9.33;5.85;;;;;;;3.64;67.72;101252.31;1794927;77;21089;-53
2022/02/26 06:52:39;;;;;;;11.15;6.75;;;;;;;3.65;67.68;101252.27;1830858;77;21062;-53
2022/02/26 06:55:08;;;;;;;10.43;5.53;;;;;;;3.69;67.65;101253.00;1827687;77;20975;-53
2022/02/26 06:57:35;;;;;;;11.93;5.90;;;;;;;3.72;67.33;101256.79;1826688;76;21085;-53
2022/02/26 07:00:05;;;;;;;13.28;6.72;;;;;;;3.78;67.10;101264.34;1833285;77;21050;-54
2022/02/26 07:02:33;;;;;;;10.40;4.92;;;;;;;3.85;66.95;101272.78;1764474;79;21501;-53
2022/02/26 07:04:59;;;;;;;11.53;6.75;;;;;;;3.87;66.74;101273.13;1748346;79;21061;-53
2022/02/26 07:07:26;;;;;;;9.13;5.08;;;;;;;3.85;66.51;101270.17;1740486;80;22251;-54
2022/02/26 07:09:52;;;;;;;14.25;5.90;;;;;;;3.87;66.50;101276.20;1766553;79;21151;-53
2022/02/26 07:12:19;;;;;;;10.78;5.97;;;;;;;3.94;66.30;101281.56;1747542;78;22418;-53
2022/02/26 07:27:24;;;;;;;9.40;5.37;;;;;;;5.51;61.73;101304.27;1871366;75;22676;-58
2022/02/26 07:29:50;;;;;;;10.68;6.30;;;;;;;5.64;60.66;101311.12;1816972;77;20950;-54
2022/02/26 07:32:17;;;;;;;9.33;5.90;;;;;;;5.55;60.52;101304.08;1802292;78;21133;-54
2022/02/26 07:34:43;;;;;;;9.05;4.87;;;;;;;5.47;60.83;101307.95;1801976;78;21517;-54
2022/02/26 07:37:09;;;;;;;10.63;5.53;;;;;;;5.39;60.69;101313.02;1785653;78;21053;-54
2022/02/26 07:39:36;;;;;;;10.80;5.30;;;;;;;5.23;60.07;101309.84;1787019;78;21489;-54
2022/02/26 07:42:03;;;;;;;10.35;5.67;;;;;;;5.14;60.57;101309.78;1753782;81;21129;-53
2022/02/26 07:44:30;;;;;;;10.13;6.22;;;;;;;5.01;59.97;101310.31;1716628;82;21210;-54
2022/02/26 07:46:56;;;;;;;11.60;5.22;;;;;;;4.90;60.24;101316.89;1742851;82;21094;-54
2022/02/26 07:49:22;;;;;;;9.23;5.53;;;;;;;4.89;60.47;101323.00;1769360;80;21068;-54
2022/02/26 07:51:49;;;;;;;11.38;5.15;;;;;;;4.91;59.63;101320.73;1769039;79;21613;-53
2022/02/26 07:54:15;;;;;;;10.65;5.22;;;;;;;4.89;59.64;101325.14;1742917;80;21086;-54
2022/02/26 07:56:42;;;;;;;9.40;5.47;;;;;;;4.89;59.65;101330.36;1764437;79;21839;-54
2022/02/26 07:59:09;;;;;;;7.45;3.87;;;;;;;4.87;59.38;101330.88;1762390;79;21713;-54
2022/02/26 08:01:35;;;;;;;11.30;5.67;;;;;;;4.90;59.66;101338.59;1762828;79;21133;-57
2022/02/26 08:04:02;;;;;;;11.40;4.90;;;;;;;4.91;59.50;101340.30;1741560;80;21094;-55
2022/02/26 08:06:28;;;;;;;9.48;4.97;;;;;;;4.91;59.04;101339.42;1766376;80;21018;-55
2022/02/26 08:08:55;;;;;;;10.55;5.25;;;;;;;4.92;59.14;101345.05;1772975;79;21094;-54
2022/02/26 08:11:28;;;;;;;9.48;4.65;;;;;;;4.96;58.28;101339.66;1775705;80;21058;-54
2022/02/26 08:13:51;;;;;;;10.30;5.05;;;;;;;5.03;58.00;101341.55;1737890;80;21059;-55
2022/02/26 08:16:17;;;;;;;8.60;4.08;;;;;;;5.06;57.92;101344.47;1770224;79;21687;-54
2022/02/26 08:18:45;;;;;;;7.90;4.03;;;;;;;5.10;57.48;101352.58;1796316;78;21001;-53
2022/02/26 08:21:12;;;;;;;7.90;4.28;;;;;;;5.12;57.08;101350.75;1791330;79;21191;-55
2022/02/26 08:23:38;;;;;;;9.08;3.55;;;;;;;5.14;56.89;101348.92;1748162;80;21399;-54
2022/02/26 08:26:05;;;;;;;8.70;4.30;;;;;;;5.20;57.18;101348.67;1735488;80;21058;-54
2022/02/26 08:28:32;;;;;;;8.48;3.90;;;;;;;5.25;56.70;101344.11;1746615;80;21484;-54
2022/02/26 08:31:00;;;;;;;11.90;4.37;;;;;;;5.29;56.55;101339.13;1751185;80;21061;-55
2022/02/26 08:33:26;;;;;;;11.33;4.35;;;;;;;5.36;56.41;101334.50;1744721;81;22147;-54
2022/02/26 08:35:52;;;;;;;10.75;4.80;;;;;;;5.41;55.92;101344.28;1770427;80;21073;-52
2022/02/26 08:38:19;;;;;;;10.18;3.85;;;;;;;5.45;55.82;101345.03;1775028;80;21054;-53
2022/02/26 08:40:46;;;;;;;9.25;4.08;;;;;;;5.46;55.71;101350.16;1783407;80;21524;-53
2022/02/26 08:43:14;;;;;;;8.05;3.22;;;;;;;5.52;55.26;101350.36;1786011;78;21342;-53
2022/02/26 08:45:42;;;;;;;13.00;4.00;;;;;;;5.56;55.07;101351.48;1784073;78;23279;-53
2022/02/26 08:48:08;;;;;;;7.92;3.25;;;;;;;5.64;54.80;101351.13;1754926;81;21622;-53
2022/02/26 08:50:34;;;;;;;7.42;3.70;;;;;;;5.70;54.20;101352.60;1770470;80;21062;-53
2022/02/26 08:53:01;;;;;;;8.10;3.70;;;;;;;5.75;54.25;101350.67;1768007;80;21097;-54
2022/02/26 08:55:27;;;;;;;8.28;3.77;;;;;;;5.74;53.63;101350.27;1770164;80;21107;-54
2022/02/26 08:57:54;;;;;;;8.85;3.30;;;;;;;5.81;53.58;101353.45;1739559;80;21082;-54
2022/02/26 09:00:20;;;;;;;7.92;3.50;;;;;;;5.88;53.48;101351.78;1767298;80;21072;-54
2022/02/26 09:02:46;;;;;;;7.92;3.33;;;;;;;5.95;53.33;101351.05;1768888;80;21018;-54
2022/02/26 09:05:13;;;;;;;9.20;3.30;;;;;;;6.00;52.55;101345.22;1765633;80;21456;-54
2022/02/26 09:07:39;;;;;;;7.58;3.08;;;;;;;6.07;52.44;101347.06;1744172;80;21148;-55
2022/02/26 09:10:07;;;;;;;8.68;3.05;;;;;;;6.16;52.46;101351.88;1741407;80;21215;-54
2022/02/26 09:12:35;;;;;;;8.03;2.95;;;;;;;6.26;51.90;101353.62;1779752;80;21011;-53
2022/02/26 09:15:02;;;;;;;14.20;3.02;;;;;;;6.31;50.57;101355.09;1771901;80;21510;-54
2022/02/26 09:17:29;;;;;;;8.10;3.58;;;;;;;6.40;51.19;101353.80;1770240;80;21477;-54
2022/02/26 09:19:55;;;;;;;6.25;2.83;;;;;;;6.47;51.37;101356.98;1765070;79;21204;-54
2022/02/26 09:22:22;;;;;;;7.65;3.10;;;;;;;6.58;51.24;101357.80;1777334;80;21108;-54
2022/02/26 09:24:48;;;;;;;7.95;3.33;;;;;;;6.64;49.90;101361.41;1770882;79;21141;-54
2022/02/26 09:27:15;;;;;;;7.80;3.33;;;;;;;6.69;50.36;101362.90;1745989;81;21074;-54
2022/02/26 09:29:41;;;;;;;8.38;2.67;;;;;;;6.75;49.70;101358.29;1765026;81;21514;-54
2022/02/26 09:32:08;;;;;;;6.35;2.47;;;;;;;6.77;48.75;101358.59;1724966;81;21055;-54
2022/02/26 09:34:34;;;;;;;7.03;3.00;;;;;;;6.82;49.08;101359.21;1759505;80;21816;-54
2022/02/26 09:37:01;;;;;;;6.72;2.85;;;;;;;6.90;49.77;101360.16;1760447;81;21561;-54
2022/02/26 09:39:28;;;;;;;6.87;2.85;;;;;;;6.98;49.10;101362.41;1759011;81;21037;-55
2022/02/26 09:41:56;;;;;;;8.08;2.75;;;;;;;7.01;48.74;101357.87;1758202;81;21046;-54
2022/02/26 09:44:23;;;;;;;6.05;2.40;;;;;;;7.06;48.70;101370.70;1760625;79;21173;-54
2022/02/26 09:46:49;;;;;;;6.75;2.25;;;;;;;7.10;47.79;101360.95;1761468;79;21962;-55
2022/02/26 09:49:16;;;;;;;6.60;2.17;;;;;;;7.10;47.10;101352.63;1761392;81;21065;-54
2022/02/26 09:51:43;;;;;;;6.30;2.00;;;;;;;7.14;47.27;101369.86;1740216;81;21085;-55
2022/02/26 09:54:10;;;;;;;9.90;2.17;;;;;;;7.16;47.08;101367.17;1763035;81;21425;-54
2022/02/26 09:56:37;;;;;;;5.47;2.00;;;;;;;7.20;46.85;101375.27;1729539;81;21110;-55
2022/02/26 09:59:04;;;;;;;6.65;2.50;;;;;;;7.23;46.21;101377.74;1749635;79;21169;-54
2022/02/26 10:01:32;;;;;;;4.97;2.00;;;;;;;7.29;46.34;101372.65;1762265;81;21020;-54
2022/02/26 10:04:10;;;;;;;5.28;1.95;;;;;;;7.35;45.78;101376.27;1757350;81;21051;-54
2022/02/26 10:06:36;;;;;;;4.50;1.92;;;;;;;7.33;45.87;101367.62;1762284;81;21062;-54
2022/02/26 10:09:10;;;;;;;6.35;2.20;;;;;;;7.32;45.93;101381.66;1758775;80;20994;-55
2022/02/26 10:11:38;;;;;;;5.70;1.82;;;;;;;7.32;46.01;101391.66;1758147;79;21099;-54
2022/02/26 10:14:14;;;;;;;5.40;1.87;;;;;;;7.33;45.25;101389.88;1760263;81;21065;-54
2022/02/26 10:16:59;;;;;;;5.25;1.65;;;;;;;7.29;44.98;101397.05;1734650;81;21543;-55
2022/02/26 10:19:34;;;;;;;6.33;2.10;;;;;;;7.26;45.23;101397.20;1756842;81;21042;-54
2022/02/26 10:22:07;;;;;;;9.20;1.77;;;;;;;7.28;44.69;101401.05;1745734;81;21067;-54
2022/02/26 10:24:36;;;;;;;6.47;1.90;;;;;;;7.32;44.44;101403.45;1758069;81;21319;-53
2022/02/26 10:27:06;;;;;;;4.35;1.37;;;;;;;7.37;43.29;101396.67;1763840;80;21056;-53
2022/02/26 10:29:38;;;;;;;3.98;1.20;;;;;;;7.45;43.08;101399.76;1738567;80;21045;-54
2022/02/26 10:32:06;;;;;;;2.50;1.00;;;;;;;7.47;42.39;101408.38;1768082;80;21524;-53
2022/02/26 10:34:42;;;;;;;4.12;1.30;;;;;;;7.52;42.43;101410.30;1766885;80;21049;-53
2022/02/26 10:37:17;;;;;;;4.20;1.30;;;;;;;7.53;42.41;101398.91;1770465;80;21717;-53
2022/02/26 10:39:51;;;;;;;4.45;1.20;;;;;;;7.56;42.26;101398.73;1767406;80;21673;-54
2022/02/26 10:42:29;;;;;;;3.10;0.93;;;;;;;7.58;42.24;101403.45;1759440;80;21549;-54
2022/02/26 10:45:06;;;;;;;5.58;1.27;;;;;;;7.63;42.00;101405.37;1767227;80;21557;-55
2022/02/26 10:47:36;;;;;;;3.50;0.95;;;;;;;7.68;41.75;101403.80;1796338;78;21079;-54
2022/02/26 10:50:01;;;;;;;2.80;0.88;;;;;;;7.74;41.50;101403.97;1761188;80;23298;-52
2022/02/26 10:52:34;;;;;;;3.77;1.02;;;;;;;7.79;41.10;101404.56;1716285;79;21107;-52
2022/02/26 10:55:06;;;;;;;5.87;1.10;;;;;;;7.86;41.21;101407.72;1792317;78;21017;-53
2022/02/26 10:57:32;;;;;;;3.87;1.50;;;;;;;7.87;40.46;101398.47;1768534;78;21069;-52
2022/02/26 10:59:58;;;;;;;3.90;1.12;;;;;;;7.93;40.31;101403.37;1796034;79;21077;-53
2022/02/26 11:02:29;;;;;;;4.15;0.80;;;;;;;7.95;40.45;101412.02;1797944;78;21137;-53
2022/02/26 11:04:56;;;;;;;4.10;0.88;;;;;;;7.99;39.68;101409.61;1796153;79;20974;-52
2022/02/26 11:07:26;;;;;;;3.90;1.10;;;;;;;8.04;39.91;101409.84;1795604;78;21056;-53
2022/02/26 11:09:52;;;;;;;4.37;1.40;;;;;;;8.06;39.04;101399.64;1785065;78;21076;-51
2022/02/26 11:12:24;;;;;;;3.02;0.93;;;;;;;8.10;38.72;101405.56;1761777;78;21042;-52
2022/02/26 11:15:00;;;;;;;2.58;0.70;;;;;;;8.15;38.92;101405.72;1794760;78;22292;-53
2022/02/26 11:17:30;;;;;;;2.42;0.70;;;;;;;8.22;38.14;101407.99;1795491;78;21005;-52
2022/02/26 11:20:00;;;;;;;2.17;0.68;;;;;;;8.29;37.16;101407.59;1761455;80;21559;-52
2022/02/26 11:22:27;;;;;;;1.55;0.42;;;;;;;8.34;37.06;101414.74;1755390;81;21616;-54
2022/02/26 11:24:53;;;;;;;2.27;0.50;;;;;;;8.34;36.39;101408.66;1769698;79;21079;-54
2022/02/26 11:27:25;;;;;;;4.40;0.65;;;;;;;8.35;36.15;101420.38;1737548;80;21126;-53
2022/02/26 11:29:51;;;;;;;2.35;0.50;;;;;;;8.31;35.27;101418.84;1787607;79;21074;-54
2022/02/26 11:32:20;;;;;;;2.80;0.70;;;;;;;8.32;35.25;101413.98;1783206;78;21068;-53
2022/02/26 11:34:47;;;;;;;2.25;0.45;;;;;;;8.37;35.46;101415.03;1768027;80;21786;-52
2022/02/26 11:37:18;;;;;;;1.92;0.50;;;;;;;8.43;35.33;101421.77;1751961;80;21522;-52
2022/02/26 11:39:51;;;;;;;1.52;0.40;;;;;;;8.45;35.53;101421.21;1749145;79;21019;-53
2022/02/26 11:42:22;;;;;;;9.05;1.02;;;;;;;8.46;35.26;101410.64;1790169;78;21096;-53